createdAt,value
2018-07-04T00:02:36.721Z,5.50
2018-07-04T00:06:18.341Z,7.43
2018-07-04T00:10:00.223Z,5.60
2018-07-04T00:13:42.128Z,5.37
2018-07-04T00:17:23.920Z,5.13
2018-07-04T00:21:05.670Z,6.20
2018-07-04T00:24:47.393Z,4.97
2018-07-04T00:28:29.328Z,5.00
2018-07-04T00:32:11.082Z,6.80
2018-07-04T00:35:52.683Z,5.67
2018-07-04T00:39:28.418Z,6.93
2018-07-04T00:43:10.171Z,7.23
2018-07-04T00:46:45.917Z,5.57
2018-07-04T00:50:27.677Z,5.93
2018-07-04T00:54:09.499Z,5.93
2018-07-04T00:57:51.265Z,7.43
2018-07-04T01:01:33.087Z,5.73
2018-07-04T01:05:08.911Z,6.07
2018-07-04T01:08:50.823Z,5.97
2018-07-04T01:12:32.553Z,8.07
2018-07-04T01:16:14.325Z,7.43
2018-07-04T01:19:56.217Z,6.93
2018-07-04T01:23:38.044Z,10.60
2018-07-04T01:27:19.713Z,7.23
2018-07-04T01:31:01.446Z,6.83
2018-07-04T01:34:43.724Z,6.33
2018-07-04T01:38:25.254Z,6.83
2018-07-04T01:42:08.170Z,7.53
2018-07-04T01:45:49.938Z,7.63
2018-07-04T01:49:32.030Z,6.67
2018-07-04T01:53:13.741Z,7.97
2018-07-04T01:56:55.441Z,8.73
2018-07-04T02:00:37.052Z,7.90
2018-07-04T02:04:18.786Z,8.57
2018-07-04T02:07:54.559Z,6.93
2018-07-04T02:11:37.312Z,6.67
2018-07-04T02:15:19.387Z,7.97
2018-07-04T02:19:01.130Z,7.30
2018-07-04T02:22:43.246Z,7.17
2018-07-04T02:26:24.962Z,7.43
2018-07-04T02:30:06.588Z,7.77
2018-07-04T02:33:48.490Z,7.13
2018-07-04T02:37:30.290Z,7.77
2018-07-04T02:41:11.974Z,10.33
2018-07-04T02:44:47.562Z,6.87
2018-07-04T02:48:29.414Z,6.67
2018-07-04T02:52:04.915Z,6.53
2018-07-04T02:55:47.033Z,6.23
2018-07-04T02:59:22.729Z,6.57
2018-07-04T03:03:04.374Z,6.93
2018-07-04T03:06:46.224Z,6.17
2018-07-04T03:10:28.120Z,6.93
2018-07-04T03:14:10.096Z,6.77
2018-07-04T03:17:51.924Z,6.77
2018-07-04T03:21:33.690Z,6.80
2018-07-04T03:25:15.524Z,7.83
2018-07-04T03:28:57.123Z,7.90
2018-07-04T03:32:38.998Z,8.07
2018-07-04T03:36:20.882Z,7.17
2018-07-04T03:39:56.833Z,7.93
2018-07-04T03:43:38.633Z,8.03
2018-07-04T03:47:20.539Z,10.47
2018-07-04T03:51:02.333Z,7.20
2018-07-04T03:54:43.937Z,6.37
2018-07-04T03:58:25.769Z,6.73
2018-07-04T04:02:07.871Z,6.40
2018-07-04T04:05:49.565Z,6.73
2018-07-04T04:09:31.281Z,7.53
2018-07-04T04:13:13.163Z,7.20
2018-07-04T04:16:54.793Z,8.30
2018-07-04T04:20:36.556Z,7.07
2018-07-04T04:24:18.440Z,7.63
2018-07-04T04:28:00.474Z,7.23
2018-07-04T04:31:42.059Z,7.60
2018-07-04T04:35:23.993Z,8.53
2018-07-04T04:39:05.989Z,6.77
2018-07-04T04:42:47.874Z,8.83
2018-07-04T04:46:29.697Z,11.30
2018-07-04T04:50:05.372Z,7.63
2018-07-04T04:53:47.045Z,7.73
2018-07-04T04:57:28.860Z,7.63
2018-07-04T05:01:10.712Z,12.07
2018-07-04T05:04:52.327Z,9.30
2018-07-04T05:08:34.254Z,7.00
2018-07-04T05:12:16.216Z,6.97
2018-07-04T05:15:58.131Z,6.97
2018-07-04T05:19:39.949Z,7.00
2018-07-04T05:23:21.815Z,6.70
2018-07-04T05:27:03.733Z,8.83
2018-07-04T05:30:45.468Z,6.83
2018-07-04T05:34:27.205Z,7.30
2018-07-04T05:38:03.255Z,7.10
2018-07-04T05:41:45.028Z,8.37
2018-07-04T05:45:28.296Z,7.10
2018-07-04T05:49:10.131Z,9.50
2018-07-04T05:52:51.803Z,9.07
2018-07-04T05:56:33.477Z,7.80
2018-07-04T06:00:15.386Z,7.97
2018-07-04T06:03:57.243Z,7.83
2018-07-04T06:07:39.366Z,7.37
2018-07-04T06:11:15.079Z,8.13
2018-07-04T06:14:56.962Z,7.70
2018-07-04T06:18:32.519Z,8.47
2018-07-04T06:22:14.463Z,8.57
2018-07-04T06:25:56.221Z,8.60
2018-07-04T06:29:38.105Z,8.07
2018-07-04T06:33:19.851Z,8.60
2018-07-04T06:37:01.838Z,7.67
2018-07-04T06:40:24.711Z,9.03
2018-07-04T06:43:47.624Z,9.13
2018-07-04T06:47:10.469Z,8.43
2018-07-04T06:50:33.359Z,8.93
2018-07-04T06:53:56.225Z,10.33
2018-07-04T06:57:20.157Z,9.07
2018-07-04T07:00:43.235Z,8.23
2018-07-04T07:04:25.106Z,11.73
2018-07-04T07:08:07.044Z,7.27
2018-07-04T07:11:48.641Z,6.90
2018-07-04T07:15:31.152Z,6.67
2018-07-04T07:19:14.432Z,6.60
2018-07-04T07:22:57.378Z,8.57
2018-07-04T07:26:39.682Z,7.77
2018-07-04T07:30:21.772Z,6.30
2018-07-04T07:33:57.768Z,6.67
2018-07-04T07:37:39.380Z,6.30
2018-07-04T07:41:21.279Z,7.17
2018-07-04T07:44:58.911Z,6.70
2018-07-04T07:48:40.918Z,8.33
2018-07-04T07:52:22.485Z,6.40
2018-07-04T07:55:58.110Z,6.90
2018-07-04T07:59:39.849Z,5.80
2018-07-04T08:03:23.013Z,7.73
2018-07-04T08:07:05.882Z,6.23
2018-07-04T08:10:47.667Z,6.43
2018-07-04T08:14:29.456Z,6.47
2018-07-04T08:18:12.139Z,6.17
2018-07-04T08:21:47.945Z,6.40
2018-07-04T08:25:30.072Z,5.63
2018-07-04T08:29:11.916Z,6.33
2018-07-04T08:32:53.848Z,5.77
2018-07-04T08:36:35.619Z,6.03
2018-07-04T08:40:17.475Z,5.87
2018-07-04T08:43:53.352Z,6.50
2018-07-04T08:47:35.276Z,7.47
2018-07-04T08:51:17.236Z,7.77
2018-07-04T08:54:52.525Z,6.33
2018-07-04T08:58:28.240Z,5.73
2018-07-04T09:02:10.984Z,6.00
2018-07-04T09:05:52.787Z,6.27
2018-07-04T09:09:34.417Z,6.20
2018-07-04T09:13:16.433Z,7.63
2018-07-04T09:16:58.143Z,6.27
2018-07-04T09:20:39.869Z,8.57
2018-07-04T09:24:21.741Z,5.87
2018-07-04T09:28:03.496Z,6.50
2018-07-04T09:31:45.179Z,4.73
2018-07-04T09:35:26.975Z,5.80
2018-07-04T09:39:08.620Z,6.13
2018-07-04T09:42:50.544Z,6.10
2018-07-04T09:46:32.719Z,6.40
2018-07-04T09:50:08.435Z,5.93
2018-07-04T09:53:50.339Z,5.17
2018-07-04T09:57:31.947Z,7.77
2018-07-04T10:01:19.365Z,5.33
2018-07-04T10:04:55.193Z,5.30
2018-07-04T10:08:37.194Z,5.93
2018-07-04T10:12:18.935Z,6.03
2018-07-04T10:16:00.799Z,6.33
2018-07-04T10:19:42.444Z,5.77
2018-07-04T10:23:24.420Z,6.50
2018-07-04T10:27:06.156Z,6.40
2018-07-04T10:30:47.691Z,8.20
2018-07-04T10:34:29.388Z,5.97
2018-07-04T10:38:11.383Z,6.17
2018-07-04T10:41:53.386Z,6.80
2018-07-04T10:45:35.229Z,6.63
2018-07-04T10:49:17.121Z,6.60
2018-07-04T10:52:52.633Z,6.43
2018-07-04T10:56:34.383Z,6.63
2018-07-04T11:00:16.449Z,5.90
2018-07-04T11:03:58.101Z,5.40
2018-07-04T11:07:39.774Z,5.67
2018-07-04T11:11:21.446Z,5.53
2018-07-04T11:15:03.108Z,3.92
2018-07-04T11:18:38.748Z,4.70
2018-07-04T11:22:20.633Z,4.20
2018-07-04T11:26:02.554Z,3.30
2018-07-04T11:29:44.282Z,3.98
2018-07-04T11:33:26.016Z,6.47
2018-07-04T11:37:07.714Z,7.17
2018-07-04T11:40:49.499Z,5.70
2018-07-04T11:44:31.277Z,5.37
2018-07-04T11:47:54.070Z,5.22
2018-07-04T11:51:16.971Z,5.20
2018-07-04T11:54:39.838Z,4.70
2018-07-04T11:58:02.707Z,5.28
2018-07-04T12:01:25.571Z,4.75
2018-07-04T12:05:07.495Z,4.50
2018-07-04T12:08:30.307Z,4.42
2018-07-04T12:11:53.273Z,6.35
2018-07-04T12:15:16.111Z,4.92
2018-07-04T12:18:38.942Z,5.28
2018-07-04T12:22:01.785Z,5.47
2018-07-04T12:25:24.630Z,4.90
2018-07-04T12:28:47.474Z,5.50
2018-07-04T12:32:10.346Z,5.07
2018-07-04T12:35:33.142Z,5.37
2018-07-04T12:38:55.991Z,5.92
2018-07-04T12:42:18.833Z,5.00
2018-07-04T12:45:41.642Z,4.60
2018-07-04T12:49:05.513Z,5.30
2018-07-04T12:52:28.347Z,6.35
2018-07-04T12:56:03.933Z,6.87
2018-07-04T12:59:46.007Z,6.17
2018-07-04T13:03:28.018Z,6.95
2018-07-04T13:07:09.764Z,6.72
2018-07-04T13:10:45.521Z,5.35
2018-07-04T13:14:21.207Z,5.30
2018-07-04T13:18:03.044Z,6.22
2018-07-04T13:21:45.073Z,5.28
2018-07-04T13:25:26.825Z,5.47
2018-07-04T13:29:08.645Z,5.12
2018-07-04T13:32:50.417Z,5.53
2018-07-04T13:36:32.189Z,5.65
2018-07-04T13:40:15.085Z,5.78
2018-07-04T13:43:56.992Z,5.70
2018-07-04T13:47:38.846Z,4.55
2018-07-04T13:51:20.662Z,4.90
2018-07-04T13:55:02.460Z,4.90
2018-07-04T13:58:44.433Z,5.15
2018-07-04T14:02:26.317Z,5.62
2018-07-04T14:06:09.478Z,4.58
2018-07-04T14:09:51.255Z,5.35
2018-07-04T14:13:33.018Z,4.78
2018-07-04T14:17:14.897Z,4.87
2018-07-04T14:20:56.585Z,3.72
2018-07-04T14:24:38.360Z,4.50
2018-07-04T14:28:20.256Z,4.08
2018-07-04T14:32:01.867Z,6.53
2018-07-04T14:35:43.679Z,3.83
2018-07-04T14:39:25.527Z,3.42
2018-07-04T14:43:07.485Z,3.30
2018-07-04T14:46:49.153Z,3.65
2018-07-04T14:50:30.799Z,3.45
2018-07-04T14:54:12.642Z,3.50
2018-07-04T14:57:54.381Z,3.50
2018-07-04T15:01:36.118Z,3.30
2018-07-04T15:05:11.724Z,3.55
2018-07-04T15:08:53.554Z,3.77
2018-07-04T15:12:29.245Z,3.40
2018-07-04T15:16:11.279Z,4.58
2018-07-04T15:19:53.139Z,5.17
2018-07-04T15:23:28.691Z,3.55
2018-07-04T15:27:10.685Z,5.65
2018-07-04T15:30:52.564Z,3.83
2018-07-04T15:34:34.449Z,3.92
2018-07-04T15:38:16.452Z,4.20
2018-07-04T15:41:57.996Z,3.80
2018-07-04T15:45:39.813Z,4.37
2018-07-04T15:49:21.805Z,4.10
2018-07-04T15:53:03.807Z,4.05
2018-07-04T15:56:45.721Z,4.03
2018-07-04T16:00:27.738Z,4.25
2018-07-04T16:04:09.505Z,3.85
2018-07-04T16:07:51.399Z,4.12
2018-07-04T16:11:33.288Z,4.08
2018-07-04T16:15:15.124Z,3.70
2018-07-04T16:18:50.774Z,4.15
2018-07-04T16:22:32.806Z,4.47
2018-07-04T16:26:14.705Z,3.75
2018-07-04T16:29:56.650Z,3.85
2018-07-04T16:33:38.378Z,3.90
2018-07-04T16:37:20.146Z,4.25
2018-07-04T16:41:02.209Z,4.00
2018-07-04T16:44:45.982Z,3.58
2018-07-04T16:48:27.868Z,3.92
2018-07-04T16:52:09.430Z,4.37
2018-07-04T16:55:51.195Z,4.20
2018-07-04T16:59:32.984Z,4.08
2018-07-04T17:03:14.684Z,3.70
2018-07-04T17:06:56.386Z,4.65
2018-07-04T17:10:38.071Z,4.17
2018-07-04T17:14:20.062Z,4.87
2018-07-04T17:17:56.875Z,4.80
2018-07-04T17:21:38.666Z,4.35
2018-07-04T17:25:20.564Z,4.33
2018-07-04T17:29:02.281Z,4.55
2018-07-04T17:32:44.271Z,5.28
2018-07-04T17:36:26.179Z,4.35
2018-07-04T17:40:07.926Z,4.25
2018-07-04T17:43:49.726Z,4.37
2018-07-04T17:47:32.359Z,5.37
2018-07-04T17:51:14.214Z,4.90
2018-07-04T17:54:56.342Z,3.80
2018-07-04T17:58:38.308Z,4.35
2018-07-04T18:02:20.355Z,4.20
2018-07-04T18:06:02.103Z,4.65
2018-07-04T18:09:44.018Z,5.40
2018-07-04T18:13:25.880Z,5.17
2018-07-04T18:17:07.575Z,5.37
2018-07-04T18:20:43.321Z,5.08
2018-07-04T18:24:25.092Z,5.22
2018-07-04T18:28:06.868Z,5.10
2018-07-04T18:31:42.363Z,4.70
2018-07-04T18:35:24.336Z,5.53
2018-07-04T18:39:06.102Z,4.90
2018-07-04T18:42:41.594Z,5.17
2018-07-04T18:46:17.533Z,5.37
2018-07-04T18:49:59.539Z,5.22
2018-07-04T18:53:41.394Z,4.57
2018-07-04T18:57:23.193Z,4.60
2018-07-04T19:01:05.401Z,5.08
2018-07-04T19:04:47.246Z,4.40
2018-07-04T19:08:28.967Z,4.87
2018-07-04T19:12:10.800Z,4.63
2018-07-04T19:15:52.728Z,4.50
2018-07-04T19:19:34.850Z,5.50
2018-07-04T19:23:16.754Z,5.27
2018-07-04T19:26:59.433Z,5.13
2018-07-04T19:30:41.338Z,5.40
2018-07-04T19:34:23.597Z,7.77
2018-07-04T19:38:05.396Z,5.90
2018-07-04T19:41:47.667Z,5.43
2018-07-04T19:45:29.372Z,5.43
2018-07-04T19:49:10.992Z,5.30
2018-07-04T19:52:52.702Z,5.20
2018-07-04T19:56:35.534Z,5.10
2018-07-04T20:00:17.351Z,5.40
2018-07-04T20:03:58.954Z,4.90
2018-07-04T20:07:40.858Z,4.87
2018-07-04T20:11:23.087Z,5.40
2018-07-04T20:15:05.025Z,5.23
2018-07-04T20:18:40.515Z,5.10
2018-07-04T20:22:22.232Z,4.93
2018-07-04T20:26:04.227Z,5.20
2018-07-04T20:29:46.235Z,5.20
2018-07-04T20:33:27.909Z,5.37
2018-07-04T20:37:10.133Z,5.37
2018-07-04T20:40:51.815Z,5.83
2018-07-04T20:44:33.756Z,5.90
2018-07-04T20:48:15.809Z,5.13
2018-07-04T20:51:57.614Z,5.47
2018-07-04T20:55:39.770Z,5.20
2018-07-04T20:59:21.652Z,5.77
2018-07-04T21:03:03.523Z,5.30
2018-07-04T21:06:45.565Z,5.40
2018-07-04T21:10:27.421Z,5.73
2018-07-04T21:14:09.054Z,5.43
2018-07-04T21:17:50.715Z,5.80
2018-07-04T21:21:32.371Z,6.73
2018-07-04T21:25:13.997Z,5.80
2018-07-04T21:28:55.840Z,5.30
2018-07-04T21:32:37.736Z,8.73
2018-07-04T21:36:19.526Z,5.80
2018-07-04T21:40:01.454Z,6.03
2018-07-04T21:43:43.225Z,5.87
2018-07-04T21:47:25.030Z,5.47
2018-07-04T21:51:07.323Z,5.57
2018-07-04T21:54:42.842Z,5.17
2018-07-04T21:58:24.558Z,5.33
2018-07-04T22:02:00.133Z,5.57
2018-07-04T22:05:42.451Z,5.83
2018-07-04T22:09:24.160Z,5.80
2018-07-04T22:13:06.170Z,5.40
2018-07-04T22:16:48.026Z,6.27
2018-07-04T22:20:30.750Z,5.43
2018-07-04T22:25:41.614Z,5.50
2018-07-04T22:29:23.406Z,5.97
2018-07-04T22:33:05.212Z,5.77
2018-07-04T22:36:46.883Z,5.53
2018-07-04T22:40:28.851Z,7.00
2018-07-04T22:44:10.695Z,5.60
2018-07-04T22:47:52.369Z,6.47
2018-07-04T22:51:33.891Z,6.10
2018-07-04T22:55:15.654Z,5.50
2018-07-04T22:58:57.229Z,5.43
2018-07-04T23:02:38.991Z,6.30
2018-07-04T23:06:20.710Z,5.70
2018-07-04T23:10:02.499Z,7.57
2018-07-04T23:13:44.250Z,6.70
2018-07-04T23:17:26.098Z,5.60
2018-07-04T23:21:07.881Z,5.90
2018-07-04T23:24:49.678Z,6.40
2018-07-04T23:28:31.456Z,5.90
2018-07-04T23:32:13.426Z,5.73
2018-07-04T23:35:49.091Z,6.07
2018-07-04T23:39:31.866Z,6.83
2018-07-04T23:43:13.789Z,6.07
2018-07-04T23:46:55.636Z,5.97
2018-07-04T23:50:37.513Z,7.07
2018-07-04T23:54:19.334Z,6.77
2018-07-04T23:58:01.053Z,6.23
